Mustoe, Virginia
Current Conditions -  °F | °C
As of 9:55 PM on Monday 22 Dec 2014 (Local Time) from KHSP Reporting Station
Light Snow Light Snow  
Wind Chill: 26°   Ceiling: 100
Heat Index: 34°   Visibility: 0mi
Dew Point: 34°   Wind: 10mph
Humidity: 100%   Direction: 130°SE
Pressure: 29.96"   Gusts: NA
Location:  38.32°N, 79.64°W
Report Text: KHSP 230255Z AUTO 13009KT M1/4SM -SN OVC001 01/01 A2996 RMK AO2 T00100010
Loading
Personal Weather Stations






























Interactive Weather Map New forecast layout! Learn more

10-Day Weather Forecast

Advertisements
Track Severe Weather on mobile